sensor_id;sensor_type;location;lat;lon;timestamp;pressure;altitude;pressure_sealevel;temperature;humidity
54144;BME280;40050;47.324;18.792;2023-02-20T00:00:15;1011.19;;;6.81;64.51
54144;BME280;40050;47.324;18.792;2023-02-20T00:02:18;1011.15;;;6.82;64.58
54144;BME280;40050;47.324;18.792;2023-02-20T00:04:20;1011.22;;;6.87;64.04
54144;BME280;40050;47.324;18.792;2023-02-20T00:06:23;1011.33;;;6.88;63.65
54144;BME280;40050;47.324;18.792;2023-02-20T00:08:25;1011.38;;;6.84;63.75
54144;BME280;40050;47.324;18.792;2023-02-20T00:10:27;1011.40;;;6.79;63.92
54144;BME280;40050;47.324;18.792;2023-02-20T00:12:30;1011.40;;;6.76;63.91
54144;BME280;40050;47.324;18.792;2023-02-20T00:14:32;1011.56;;;6.81;63.63
54144;BME280;40050;47.324;18.792;2023-02-20T00:16:34;1011.47;;;6.73;63.70
54144;BME280;40050;47.324;18.792;2023-02-20T00:18:37;1011.56;;;6.74;63.60
54144;BME280;40050;47.324;18.792;2023-02-20T00:20:39;1011.53;;;6.73;63.52
54144;BME280;40050;47.324;18.792;2023-02-20T00:22:41;1011.57;;;6.70;63.13
54144;BME280;40050;47.324;18.792;2023-02-20T00:24:44;1011.56;;;6.70;63.45
54144;BME280;40050;47.324;18.792;2023-02-20T00:26:47;1011.63;;;6.63;63.43
54144;BME280;40050;47.324;18.792;2023-02-20T00:28:50;1011.58;;;6.65;63.51
54144;BME280;40050;47.324;18.792;2023-02-20T00:30:52;1011.63;;;6.64;63.46
54144;BME280;40050;47.324;18.792;2023-02-20T00:32:55;1011.66;;;6.59;63.69
54144;BME280;40050;47.324;18.792;2023-02-20T00:34:58;1011.80;;;6.61;63.57
54144;BME280;40050;47.324;18.792;2023-02-20T00:37:00;1011.76;;;6.58;63.31
54144;BME280;40050;47.324;18.792;2023-02-20T00:39:02;1011.89;;;6.61;63.07
54144;BME280;40050;47.324;18.792;2023-02-20T00:41:05;1011.93;;;6.59;62.99
54144;BME280;40050;47.324;18.792;2023-02-20T00:43:07;1011.92;;;6.52;63.03
54144;BME280;40050;47.324;18.792;2023-02-20T00:45:10;1011.95;;;6.48;63.15
54144;BME280;40050;47.324;18.792;2023-02-20T00:47:13;1011.96;;;6.39;63.43
54144;BME280;40050;47.324;18.792;2023-02-20T00:49:15;1012.05;;;6.35;63.65
54144;BME280;40050;47.324;18.792;2023-02-20T00:51:17;1012.02;;;6.31;63.80
54144;BME280;40050;47.324;18.792;2023-02-20T00:53:20;1012.03;;;6.27;63.94
54144;BME280;40050;47.324;18.792;2023-02-20T00:55:22;1012.12;;;6.27;63.92
54144;BME280;40050;47.324;18.792;2023-02-20T00:57:25;1012.06;;;6.24;63.93
54144;BME280;40050;47.324;18.792;2023-02-20T00:59:27;1012.08;;;6.19;63.90
54144;BME280;40050;47.324;18.792;2023-02-20T01:01:29;1012.08;;;6.16;63.95
54144;BME280;40050;47.324;18.792;2023-02-20T01:03:32;1012.03;;;6.08;63.97
54144;BME280;40050;47.324;18.792;2023-02-20T01:05:34;1012.06;;;6.14;63.79
54144;BME280;40050;47.324;18.792;2023-02-20T01:07:37;1012.04;;;6.12;63.65
54144;BME280;40050;47.324;18.792;2023-02-20T01:09:39;1012.08;;;6.09;63.69
54144;BME280;40050;47.324;18.792;2023-02-20T01:11:42;1012.04;;;6.12;63.60
54144;BME280;40050;47.324;18.792;2023-02-20T01:13:44;1012.01;;;6.08;63.66
54144;BME280;40050;47.324;18.792;2023-02-20T01:15:47;1011.99;;;6.09;63.50
54144;BME280;40050;47.324;18.792;2023-02-20T01:17:49;1011.97;;;6.04;63.48
54144;BME280;40050;47.324;18.792;2023-02-20T01:19:51;1011.93;;;5.98;63.49
54144;BME280;40050;47.324;18.792;2023-02-20T01:21:54;1012.00;;;5.92;63.53
54144;BME280;40050;47.324;18.792;2023-02-20T01:23:56;1011.96;;;5.84;63.60
54144;BME280;40050;47.324;18.792;2023-02-20T01:25:59;1011.91;;;5.79;63.70
54144;BME280;40050;47.324;18.792;2023-02-20T01:28:01;1011.95;;;5.79;63.59
54144;BME280;40050;47.324;18.792;2023-02-20T01:30:04;1012.00;;;5.75;63.74
54144;BME280;40050;47.324;18.792;2023-02-20T01:32:08;1012.00;;;5.75;63.75
54144;BME280;40050;47.324;18.792;2023-02-20T01:34:11;1012.01;;;5.72;63.79
54144;BME280;40050;47.324;18.792;2023-02-20T01:36:14;1012.02;;;5.64;63.88
54144;BME280;40050;47.324;18.792;2023-02-20T01:38:16;1012.08;;;5.58;64.15
54144;BME280;40050;47.324;18.792;2023-02-20T01:40:19;1012.09;;;5.52;64.32
54144;BME280;40050;47.324;18.792;2023-02-20T01:42:23;1012.16;;;5.47;64.43
54144;BME280;40050;47.324;18.792;2023-02-20T01:44:27;1012.15;;;5.50;64.36
54144;BME280;40050;47.324;18.792;2023-02-20T01:48:44;1012.21;;;5.48;64.20
54144;BME280;40050;47.324;18.792;2023-02-20T01:50:46;1012.21;;;5.45;64.22
54144;BME280;40050;47.324;18.792;2023-02-20T01:52:51;1012.21;;;5.42;64.23
54144;BME280;40050;47.324;18.792;2023-02-20T01:55:04;1012.19;;;5.40;64.20
54144;BME280;40050;47.324;18.792;2023-02-20T01:57:12;1012.21;;;5.37;64.20
54144;BME280;40050;47.324;18.792;2023-02-20T01:59:15;1012.25;;;5.35;64.13
54144;BME280;40050;47.324;18.792;2023-02-20T02:01:18;1012.28;;;5.28;64.29
54144;BME280;40050;47.324;18.792;2023-02-20T02:03:21;1012.30;;;5.26;64.38
54144;BME280;40050;47.324;18.792;2023-02-20T02:05:25;1012.27;;;5.20;64.44
54144;BME280;40050;47.324;18.792;2023-02-20T02:07:29;1012.30;;;5.19;64.47
54144;BME280;40050;47.324;18.792;2023-02-20T02:11:46;1012.24;;;5.11;64.70
54144;BME280;40050;47.324;18.792;2023-02-20T02:13:50;1012.17;;;5.06;64.81
54144;BME280;40050;47.324;18.792;2023-02-20T02:15:53;1012.11;;;5.09;64.69
54144;BME280;40050;47.324;18.792;2023-02-20T02:18:07;1012.11;;;5.04;64.68
54144;BME280;40050;47.324;18.792;2023-02-20T02:20:22;1012.10;;;5.01;64.72
54144;BME280;40050;47.324;18.792;2023-02-20T02:32:09;1012.22;;;4.85;65.06
54144;BME280;40050;47.324;18.792;2023-02-20T02:34:20;1012.28;;;4.88;65.00
54144;BME280;40050;47.324;18.792;2023-02-20T02:36:35;1012.30;;;4.87;64.99
54144;BME280;40050;47.324;18.792;2023-02-20T02:38:47;1012.35;;;4.81;65.17
54144;BME280;40050;47.324;18.792;2023-02-20T02:41:07;1012.40;;;4.83;65.18
54144;BME280;40050;47.324;18.792;2023-02-20T02:45:37;1012.50;;;4.73;65.44
54144;BME280;40050;47.324;18.792;2023-02-20T02:47:47;1012.53;;;4.76;65.30
54144;BME280;40050;47.324;18.792;2023-02-20T02:49:56;1012.53;;;4.72;65.59
54144;BME280;40050;47.324;18.792;2023-02-20T02:52:00;1012.50;;;4.75;65.62
54144;BME280;40050;47.324;18.792;2023-02-20T02:54:07;1012.38;;;4.73;65.47
54144;BME280;40050;47.324;18.792;2023-02-20T02:56:10;1012.40;;;4.80;65.35
54144;BME280;40050;47.324;18.792;2023-02-20T02:58:12;1012.40;;;4.81;65.22
54144;BME280;40050;47.324;18.792;2023-02-20T03:02:32;1012.38;;;4.77;65.23
54144;BME280;40050;47.324;18.792;2023-02-20T03:04:36;1012.51;;;4.75;65.26
54144;BME280;40050;47.324;18.792;2023-02-20T03:06:41;1012.49;;;4.76;65.29
54144;BME280;40050;47.324;18.792;2023-02-20T03:08:56;1012.53;;;4.77;65.21
54144;BME280;40050;47.324;18.792;2023-02-20T03:11:04;1012.52;;;4.74;65.14
54144;BME280;40050;47.324;18.792;2023-02-20T03:13:07;1012.58;;;4.74;65.23
54144;BME280;40050;47.324;18.792;2023-02-20T03:17:39;1012.62;;;4.69;65.25
54144;BME280;40050;47.324;18.792;2023-02-20T03:19:47;1012.72;;;4.70;65.35
54144;BME280;40050;47.324;18.792;2023-02-20T03:21:51;1012.71;;;4.69;65.42
54144;BME280;40050;47.324;18.792;2023-02-20T03:23:56;1012.74;;;4.73;65.32
54144;BME280;40050;47.324;18.792;2023-02-20T03:26:08;1012.74;;;4.71;65.30
54144;BME280;40050;47.324;18.792;2023-02-20T03:28:26;1012.74;;;4.67;65.49
54144;BME280;40050;47.324;18.792;2023-02-20T03:30:36;1012.72;;;4.66;65.62
54144;BME280;40050;47.324;18.792;2023-02-20T03:32:40;1012.68;;;4.61;65.74
54144;BME280;40050;47.324;18.792;2023-02-20T03:34:44;1012.69;;;4.59;66.03
54144;BME280;40050;47.324;18.792;2023-02-20T03:37:11;1012.65;;;4.62;66.18
54144;BME280;40050;47.324;18.792;2023-02-20T03:39:17;1012.63;;;4.64;66.13
54144;BME280;40050;47.324;18.792;2023-02-20T03:41:19;1012.73;;;4.69;66.20
54144;BME280;40050;47.324;18.792;2023-02-20T03:43:23;1012.70;;;4.66;66.35
54144;BME280;40050;47.324;18.792;2023-02-20T03:45:26;1012.62;;;4.63;66.57
54144;BME280;40050;47.324;18.792;2023-02-20T03:47:29;1012.69;;;4.72;66.41
54144;BME280;40050;47.324;18.792;2023-02-20T03:49:37;1012.61;;;4.71;66.33
54144;BME280;40050;47.324;18.792;2023-02-20T03:51:40;1012.66;;;4.67;66.35
54144;BME280;40050;47.324;18.792;2023-02-20T03:53:43;1012.61;;;4.76;66.34
54144;BME280;40050;47.324;18.792;2023-02-20T03:55:46;1012.58;;;4.80;66.31
54144;BME280;40050;47.324;18.792;2023-02-20T03:57:52;1012.53;;;4.83;66.05
54144;BME280;40050;47.324;18.792;2023-02-20T03:59:57;1012.54;;;4.83;66.15
54144;BME280;40050;47.324;18.792;2023-02-20T04:02:03;1012.55;;;4.81;66.18
54144;BME280;40050;47.324;18.792;2023-02-20T04:04:07;1012.59;;;4.81;66.20
54144;BME280;40050;47.324;18.792;2023-02-20T04:06:11;1012.51;;;4.82;66.37
54144;BME280;40050;47.324;18.792;2023-02-20T04:08:19;1012.58;;;4.87;66.22
54144;BME280;40050;47.324;18.792;2023-02-20T04:10:25;1012.55;;;4.88;66.19
54144;BME280;40050;47.324;18.792;2023-02-20T04:12:31;1012.61;;;4.94;65.94
54144;BME280;40050;47.324;18.792;2023-02-20T04:14:35;1012.68;;;4.95;65.85
54144;BME280;40050;47.324;18.792;2023-02-20T04:16:39;1012.63;;;4.97;65.66
54144;BME280;40050;47.324;18.792;2023-02-20T04:18:43;1012.65;;;4.97;65.76
54144;BME280;40050;47.324;18.792;2023-02-20T04:20:48;1012.68;;;4.98;65.91
54144;BME280;40050;47.324;18.792;2023-02-20T04:22:54;1012.67;;;4.97;65.85
54144;BME280;40050;47.324;18.792;2023-02-20T04:24:59;1012.67;;;5.04;65.46
54144;BME280;40050;47.324;18.792;2023-02-20T04:27:02;1012.74;;;5.04;65.57
54144;BME280;40050;47.324;18.792;2023-02-20T04:29:05;1012.76;;;5.05;65.65
54144;BME280;40050;47.324;18.792;2023-02-20T04:31:09;1012.65;;;5.06;65.93
54144;BME280;40050;47.324;18.792;2023-02-20T04:33:12;1012.68;;;5.09;65.89
54144;BME280;40050;47.324;18.792;2023-02-20T04:35:16;1012.72;;;5.13;65.69
54144;BME280;40050;47.324;18.792;2023-02-20T04:37:19;1012.70;;;5.15;65.73
54144;BME280;40050;47.324;18.792;2023-02-20T04:39:21;1012.67;;;5.15;65.58
54144;BME280;40050;47.324;18.792;2023-02-20T04:41:23;1012.63;;;5.15;65.56
54144;BME280;40050;47.324;18.792;2023-02-20T04:43:26;1012.62;;;5.17;65.58
54144;BME280;40050;47.324;18.792;2023-02-20T04:45:28;1012.51;;;5.13;65.64
54144;BME280;40050;47.324;18.792;2023-02-20T04:47:31;1012.53;;;5.16;65.64
54144;BME280;40050;47.324;18.792;2023-02-20T04:49:33;1012.43;;;5.20;65.48
54144;BME280;40050;47.324;18.792;2023-02-20T04:51:36;1012.40;;;5.21;65.39
54144;BME280;40050;47.324;18.792;2023-02-20T04:53:38;1012.40;;;5.21;65.24
54144;BME280;40050;47.324;18.792;2023-02-20T04:55:40;1012.34;;;5.19;65.23
54144;BME280;40050;47.324;18.792;2023-02-20T04:57:43;1012.39;;;5.22;65.32
54144;BME280;40050;47.324;18.792;2023-02-20T04:59:45;1012.33;;;5.25;65.25
54144;BME280;40050;47.324;18.792;2023-02-20T05:01:47;1012.32;;;5.26;65.20
54144;BME280;40050;47.324;18.792;2023-02-20T05:03:50;1012.38;;;5.32;65.12
54144;BME280;40050;47.324;18.792;2023-02-20T05:05:52;1012.35;;;5.33;65.12
54144;BME280;40050;47.324;18.792;2023-02-20T05:07:55;1012.40;;;5.32;65.21
54144;BME280;40050;47.324;18.792;2023-02-20T05:09:58;1012.45;;;5.38;64.91
54144;BME280;40050;47.324;18.792;2023-02-20T05:12:00;1012.50;;;5.37;64.79
54144;BME280;40050;47.324;18.792;2023-02-20T05:14:03;1012.58;;;5.37;65.01
54144;BME280;40050;47.324;18.792;2023-02-20T05:16:05;1012.55;;;5.33;65.13
54144;BME280;40050;47.324;18.792;2023-02-20T05:18:08;1012.57;;;5.33;65.30
54144;BME280;40050;47.324;18.792;2023-02-20T05:20:15;1012.53;;;5.32;65.34
54144;BME280;40050;47.324;18.792;2023-02-20T05:22:18;1012.50;;;5.33;65.43
54144;BME280;40050;47.324;18.792;2023-02-20T05:24:20;1012.49;;;5.33;65.40
54144;BME280;40050;47.324;18.792;2023-02-20T05:26:23;1012.51;;;5.36;65.31
54144;BME280;40050;47.324;18.792;2023-02-20T05:28:25;1012.62;;;5.36;65.27
54144;BME280;40050;47.324;18.792;2023-02-20T05:30:27;1012.68;;;5.39;65.10
54144;BME280;40050;47.324;18.792;2023-02-20T05:32:30;1012.60;;;5.38;65.08
54144;BME280;40050;47.324;18.792;2023-02-20T05:34:32;1012.45;;;5.28;65.08
54144;BME280;40050;47.324;18.792;2023-02-20T05:36:35;1012.56;;;5.37;65.05
54144;BME280;40050;47.324;18.792;2023-02-20T05:38:37;1012.56;;;5.38;64.99
54144;BME280;40050;47.324;18.792;2023-02-20T05:40:39;1012.57;;;5.36;64.96
54144;BME280;40050;47.324;18.792;2023-02-20T05:42:42;1012.64;;;5.37;65.04
54144;BME280;40050;47.324;18.792;2023-02-20T05:44:44;1012.62;;;5.41;64.94
54144;BME280;40050;47.324;18.792;2023-02-20T05:46:49;1012.64;;;5.40;64.94
54144;BME280;40050;47.324;18.792;2023-02-20T05:48:52;1012.63;;;5.43;64.95
54144;BME280;40050;47.324;18.792;2023-02-20T05:50:55;1012.65;;;5.41;64.99
54144;BME280;40050;47.324;18.792;2023-02-20T05:52:57;1012.56;;;5.44;65.02
54144;BME280;40050;47.324;18.792;2023-02-20T05:57:26;1012.71;;;5.42;65.15
54144;BME280;40050;47.324;18.792;2023-02-20T05:59:29;1012.65;;;5.39;65.30
54144;BME280;40050;47.324;18.792;2023-02-20T06:01:31;1012.74;;;5.43;65.36
54144;BME280;40050;47.324;18.792;2023-02-20T06:03:33;1012.80;;;5.46;65.20
54144;BME280;40050;47.324;18.792;2023-02-20T06:05:36;1012.76;;;5.47;65.20
54144;BME280;40050;47.324;18.792;2023-02-20T06:07:38;1012.77;;;5.47;65.14
54144;BME280;40050;47.324;18.792;2023-02-20T06:09:41;1012.85;;;5.51;65.13
54144;BME280;40050;47.324;18.792;2023-02-20T06:11:51;1012.22;;;5.14;64.84
54144;BME280;40050;47.324;18.792;2023-02-20T06:13:53;1012.90;;;5.55;64.86
54144;BME280;40050;47.324;18.792;2023-02-20T06:15:56;1012.97;;;5.56;64.78
54144;BME280;40050;47.324;18.792;2023-02-20T06:17:58;1013.01;;;5.57;64.95
54144;BME280;40050;47.324;18.792;2023-02-20T06:20:00;1012.99;;;5.56;64.96
54144;BME280;40050;47.324;18.792;2023-02-20T06:22:03;1013.03;;;5.58;64.76
54144;BME280;40050;47.324;18.792;2023-02-20T06:24:05;1012.90;;;5.52;64.81
54144;BME280;40050;47.324;18.792;2023-02-20T06:26:07;1013.00;;;5.60;64.79
54144;BME280;40050;47.324;18.792;2023-02-20T06:28:10;1013.04;;;5.67;64.58
54144;BME280;40050;47.324;18.792;2023-02-20T06:30:12;1012.97;;;5.64;64.48
54144;BME280;40050;47.324;18.792;2023-02-20T06:32:15;1013.11;;;5.70;64.52
54144;BME280;40050;47.324;18.792;2023-02-20T06:34:23;1013.10;;;5.70;64.57
54144;BME280;40050;47.324;18.792;2023-02-20T06:36:26;1012.96;;;5.68;64.49
54144;BME280;40050;47.324;18.792;2023-02-20T06:38:29;1012.94;;;5.78;64.42
54144;BME280;40050;47.324;18.792;2023-02-20T06:40:31;1012.96;;;5.78;64.79
54144;BME280;40050;47.324;18.792;2023-02-20T06:42:34;1013.07;;;5.82;64.78
54144;BME280;40050;47.324;18.792;2023-02-20T06:44:36;1013.08;;;5.83;64.74
54144;BME280;40050;47.324;18.792;2023-02-20T06:46:39;1013.12;;;5.85;64.67
54144;BME280;40050;47.324;18.792;2023-02-20T06:48:48;1013.15;;;5.90;64.63
54144;BME280;40050;47.324;18.792;2023-02-20T06:50:50;1013.05;;;5.88;64.70
54144;BME280;40050;47.324;18.792;2023-02-20T06:52:53;1013.13;;;5.93;64.49
54144;BME280;40050;47.324;18.792;2023-02-20T06:54:55;1013.15;;;5.96;64.50
54144;BME280;40050;47.324;18.792;2023-02-20T06:56:57;1013.12;;;5.98;64.66
54144;BME280;40050;47.324;18.792;2023-02-20T06:59:01;1013.13;;;6.01;64.46
54144;BME280;40050;47.324;18.792;2023-02-20T07:01:03;1013.01;;;5.93;64.57
54144;BME280;40050;47.324;18.792;2023-02-20T07:03:06;1013.10;;;6.00;64.70
54144;BME280;40050;47.324;18.792;2023-02-20T07:05:09;1013.15;;;6.01;64.84
54144;BME280;40050;47.324;18.792;2023-02-20T07:07:11;1013.15;;;6.02;64.93
54144;BME280;40050;47.324;18.792;2023-02-20T07:09:14;1013.18;;;6.08;64.71
54144;BME280;40050;47.324;18.792;2023-02-20T07:11:18;1013.22;;;6.07;64.76
54144;BME280;40050;47.324;18.792;2023-02-20T07:13:21;1013.16;;;6.06;64.95
54144;BME280;40050;47.324;18.792;2023-02-20T07:15:23;1013.00;;;6.01;64.97
54144;BME280;40050;47.324;18.792;2023-02-20T07:17:25;1013.13;;;6.14;65.20
54144;BME280;40050;47.324;18.792;2023-02-20T07:19:28;1013.02;;;6.08;65.15
54144;BME280;40050;47.324;18.792;2023-02-20T07:21:30;1013.18;;;6.23;65.05
54144;BME280;40050;47.324;18.792;2023-02-20T07:23:32;1013.16;;;6.26;64.89
54144;BME280;40050;47.324;18.792;2023-02-20T07:25:35;1013.11;;;6.32;64.85
54144;BME280;40050;47.324;18.792;2023-02-20T07:27:37;1013.07;;;6.35;64.84
54144;BME280;40050;47.324;18.792;2023-02-20T07:29:39;1013.03;;;6.41;64.77
54144;BME280;40050;47.324;18.792;2023-02-20T07:31:42;1013.02;;;6.52;64.72
54144;BME280;40050;47.324;18.792;2023-02-20T07:33:44;1013.04;;;6.54;64.71
54144;BME280;40050;47.324;18.792;2023-02-20T07:35:46;1013.09;;;6.62;64.84
54144;BME280;40050;47.324;18.792;2023-02-20T07:37:49;1013.09;;;6.64;64.76
54144;BME280;40050;47.324;18.792;2023-02-20T07:39:51;1013.11;;;6.71;64.60
54144;BME280;40050;47.324;18.792;2023-02-20T07:41:54;1012.85;;;6.56;64.67
54144;BME280;40050;47.324;18.792;2023-02-20T07:43:56;1013.07;;;6.80;64.66
54144;BME280;40050;47.324;18.792;2023-02-20T07:45:59;1012.68;;;6.61;64.32
54144;BME280;40050;47.324;18.792;2023-02-20T07:48:01;1012.72;;;6.65;63.84
54144;BME280;40050;47.324;18.792;2023-02-20T07:50:03;1013.05;;;6.90;63.83
54144;BME280;40050;47.324;18.792;2023-02-20T07:52:06;1012.95;;;6.89;64.08
54144;BME280;40050;47.324;18.792;2023-02-20T07:54:08;1012.92;;;6.93;63.82
54144;BME280;40050;47.324;18.792;2023-02-20T07:56:10;1012.95;;;6.98;63.76
54144;BME280;40050;47.324;18.792;2023-02-20T07:58:13;1012.85;;;6.97;63.33
54144;BME280;40050;47.324;18.792;2023-02-20T08:00:16;1012.88;;;7.01;63.45
54144;BME280;40050;47.324;18.792;2023-02-20T08:02:19;1012.69;;;6.98;63.36
54144;BME280;40050;47.324;18.792;2023-02-20T08:04:21;1012.75;;;7.08;63.13
54144;BME280;40050;47.324;18.792;2023-02-20T08:06:23;1012.76;;;7.10;63.21
54144;BME280;40050;47.324;18.792;2023-02-20T08:08:26;1012.56;;;7.03;63.08
54144;BME280;40050;47.324;18.792;2023-02-20T08:10:28;1012.82;;;7.20;62.94
54144;BME280;40050;47.324;18.792;2023-02-20T08:12:31;1012.86;;;7.24;63.04
54144;BME280;40050;47.324;18.792;2023-02-20T08:14:33;1012.95;;;7.25;62.81
54144;BME280;40050;47.324;18.792;2023-02-20T08:16:35;1012.98;;;7.26;63.20
54144;BME280;40050;47.324;18.792;2023-02-20T08:18:38;1013.07;;;7.34;63.33
54144;BME280;40050;47.324;18.792;2023-02-20T08:20:40;1012.82;;;7.19;63.36
54144;BME280;40050;47.324;18.792;2023-02-20T08:22:46;1013.14;;;7.45;63.38
54144;BME280;40050;47.324;18.792;2023-02-20T08:24:48;1013.22;;;7.49;63.43
54144;BME280;40050;47.324;18.792;2023-02-20T08:26:51;1013.26;;;7.56;63.38
54144;BME280;40050;47.324;18.792;2023-02-20T08:28:53;1013.26;;;7.53;63.26
54144;BME280;40050;47.324;18.792;2023-02-20T08:30:55;1013.25;;;7.59;63.29
54144;BME280;40050;47.324;18.792;2023-02-20T08:32:58;1013.24;;;7.68;62.79
54144;BME280;40050;47.324;18.792;2023-02-20T08:35:00;1013.25;;;7.70;62.81
54144;BME280;40050;47.324;18.792;2023-02-20T08:37:02;1013.20;;;7.70;62.84
54144;BME280;40050;47.324;18.792;2023-02-20T08:39:05;1013.13;;;7.78;62.75
54144;BME280;40050;47.324;18.792;2023-02-20T08:41:08;1013.12;;;7.82;62.74
54144;BME280;40050;47.324;18.792;2023-02-20T08:43:11;1013.05;;;7.77;62.99
54144;BME280;40050;47.324;18.792;2023-02-20T08:45:13;1012.92;;;7.76;62.89
54144;BME280;40050;47.324;18.792;2023-02-20T08:47:19;1013.02;;;7.83;63.07
54144;BME280;40050;47.324;18.792;2023-02-20T08:49:21;1012.94;;;7.84;63.03
54144;BME280;40050;47.324;18.792;2023-02-20T08:51:23;1012.92;;;7.91;63.13
54144;BME280;40050;47.324;18.792;2023-02-20T08:53:26;1012.83;;;7.91;62.89
54144;BME280;40050;47.324;18.792;2023-02-20T08:55:28;1012.80;;;7.86;63.20
54144;BME280;40050;47.324;18.792;2023-02-20T08:57:30;1012.78;;;7.88;63.63
54144;BME280;40050;47.324;18.792;2023-02-20T08:59:33;1012.70;;;7.97;63.68
54144;BME280;40050;47.324;18.792;2023-02-20T09:01:35;1012.56;;;7.96;64.00
54144;BME280;40050;47.324;18.792;2023-02-20T09:03:37;1012.59;;;8.08;64.37
54144;BME280;40050;47.324;18.792;2023-02-20T09:05:40;1012.54;;;8.14;64.54
54144;BME280;40050;47.324;18.792;2023-02-20T09:07:43;1012.63;;;8.28;64.67
54144;BME280;40050;47.324;18.792;2023-02-20T09:09:45;1012.60;;;8.31;64.29
54144;BME280;40050;47.324;18.792;2023-02-20T09:11:48;1012.58;;;8.41;64.41
54144;BME280;40050;47.324;18.792;2023-02-20T09:13:50;1012.62;;;8.44;64.29
54144;BME280;40050;47.324;18.792;2023-02-20T09:15:52;1012.58;;;8.50;64.66
54144;BME280;40050;47.324;18.792;2023-02-20T09:17:55;1012.62;;;8.61;64.90
54144;BME280;40050;47.324;18.792;2023-02-20T09:19:57;1012.53;;;8.68;64.61
54144;BME280;40050;47.324;18.792;2023-02-20T09:22:00;1012.61;;;8.78;64.57
54144;BME280;40050;47.324;18.792;2023-02-20T09:24:04;1012.61;;;8.85;65.01
54144;BME280;40050;47.324;18.792;2023-02-20T09:26:06;1012.60;;;8.83;64.36
54144;BME280;40050;47.324;18.792;2023-02-20T09:28:08;1012.53;;;8.84;64.80
54144;BME280;40050;47.324;18.792;2023-02-20T09:30:13;1012.48;;;8.82;64.81
54144;BME280;40050;47.324;18.792;2023-02-20T09:32:16;1012.54;;;8.87;65.12
54144;BME280;40050;47.324;18.792;2023-02-20T09:34:19;1012.52;;;8.95;65.40
54144;BME280;40050;47.324;18.792;2023-02-20T09:36:21;1012.45;;;9.03;65.56
54144;BME280;40050;47.324;18.792;2023-02-20T09:38:23;1012.38;;;9.16;65.54
54144;BME280;40050;47.324;18.792;2023-02-20T09:40:27;1012.42;;;9.22;65.57
54144;BME280;40050;47.324;18.792;2023-02-20T09:47:15;1012.27;;;9.33;65.65
54144;BME280;40050;47.324;18.792;2023-02-20T09:49:23;1012.28;;;9.39;66.21
54144;BME280;40050;47.324;18.792;2023-02-20T09:51:27;1012.24;;;9.42;66.17
54144;BME280;40050;47.324;18.792;2023-02-20T09:53:36;1012.24;;;9.55;66.00
54144;BME280;40050;47.324;18.792;2023-02-20T09:55:41;1012.21;;;9.57;65.93
54144;BME280;40050;47.324;18.792;2023-02-20T09:57:45;1012.25;;;9.62;65.79
54144;BME280;40050;47.324;18.792;2023-02-20T09:59:50;1011.90;;;9.39;65.70
54144;BME280;40050;47.324;18.792;2023-02-20T10:02:00;1012.16;;;9.65;65.79
54144;BME280;40050;47.324;18.792;2023-02-20T10:04:05;1012.18;;;9.71;65.88
54144;BME280;40050;47.324;18.792;2023-02-20T10:06:16;1012.13;;;9.75;65.98
54144;BME280;40050;47.324;18.792;2023-02-20T10:08:20;1012.08;;;9.88;66.03
54144;BME280;40050;47.324;18.792;2023-02-20T10:10:27;1012.00;;;9.99;65.89
54144;BME280;40050;47.324;18.792;2023-02-20T10:12:32;1011.95;;;10.11;65.87
54144;BME280;40050;47.324;18.792;2023-02-20T10:14:46;1011.88;;;10.20;65.92
54144;BME280;40050;47.324;18.792;2023-02-20T10:23:52;1011.68;;;11.18;64.47
54144;BME280;40050;47.324;18.792;2023-02-20T10:26:00;1011.68;;;11.50;64.50
54144;BME280;40050;47.324;18.792;2023-02-20T10:28:14;1011.62;;;11.76;63.65
54144;BME280;40050;47.324;18.792;2023-02-20T10:30:30;1011.66;;;11.95;60.84
54144;BME280;40050;47.324;18.792;2023-02-20T10:32:43;1011.60;;;12.01;60.21
54144;BME280;40050;47.324;18.792;2023-02-20T10:35:02;1011.56;;;12.08;60.83
54144;BME280;40050;47.324;18.792;2023-02-20T10:37:10;1011.57;;;12.21;61.14
54144;BME280;40050;47.324;18.792;2023-02-20T10:39:15;1011.52;;;12.31;60.43
54144;BME280;40050;47.324;18.792;2023-02-20T10:41:20;1011.43;;;12.30;59.52
54144;BME280;40050;47.324;18.792;2023-02-20T10:48:08;1011.47;;;12.28;58.71
54144;BME280;40050;47.324;18.792;2023-02-20T10:50:12;1011.40;;;12.23;58.22
54144;BME280;40050;47.324;18.792;2023-02-20T10:52:21;1011.40;;;12.18;59.18
54144;BME280;40050;47.324;18.792;2023-02-20T10:54:32;1010.93;;;11.92;58.97
54144;BME280;40050;47.324;18.792;2023-02-20T10:56:45;1011.33;;;12.10;59.16
54144;BME280;40050;47.324;18.792;2023-02-20T11:01:14;1011.27;;;12.04;59.86
54144;BME280;40050;47.324;18.792;2023-02-20T11:03:19;1011.22;;;12.06;59.76
54144;BME280;40050;47.324;18.792;2023-02-20T11:05:22;1011.17;;;11.99;59.87
54144;BME280;40050;47.324;18.792;2023-02-20T11:07:26;1011.18;;;11.98;60.10
54144;BME280;40050;47.324;18.792;2023-02-20T11:09:28;1011.13;;;12.04;59.96
54144;BME280;40050;47.324;18.792;2023-02-20T11:11:34;1011.10;;;12.05;60.08
54144;BME280;40050;47.324;18.792;2023-02-20T11:13:37;1011.02;;;11.99;59.01
54144;BME280;40050;47.324;18.792;2023-02-20T11:15:39;1010.94;;;12.00;59.42
54144;BME280;40050;47.324;18.792;2023-02-20T11:17:44;1010.89;;;12.02;59.33
54144;BME280;40050;47.324;18.792;2023-02-20T11:19:50;1010.81;;;12.00;58.72
54144;BME280;40050;47.324;18.792;2023-02-20T11:21:53;1010.83;;;11.97;59.09
54144;BME280;40050;47.324;18.792;2023-02-20T11:23:55;1010.75;;;11.89;59.01
54144;BME280;40050;47.324;18.792;2023-02-20T11:26:11;1010.74;;;11.95;59.67
54144;BME280;40050;47.324;18.792;2023-02-20T11:28:19;1010.69;;;12.02;59.99
54144;BME280;40050;47.324;18.792;2023-02-20T11:30:29;1010.62;;;12.04;59.25
54144;BME280;40050;47.324;18.792;2023-02-20T11:32:37;1010.41;;;11.99;58.50
54144;BME280;40050;47.324;18.792;2023-02-20T11:34:39;1010.58;;;12.24;58.90
54144;BME280;40050;47.324;18.792;2023-02-20T11:36:44;1010.64;;;12.33;57.98
54144;BME280;40050;47.324;18.792;2023-02-20T11:38:47;1010.53;;;12.37;58.04
54144;BME280;40050;47.324;18.792;2023-02-20T11:43:20;1010.38;;;12.45;57.46
54144;BME280;40050;47.324;18.792;2023-02-20T11:45:25;1010.34;;;12.63;57.62
54144;BME280;40050;47.324;18.792;2023-02-20T11:47:28;1010.25;;;12.70;57.12
54144;BME280;40050;47.324;18.792;2023-02-20T11:49:30;1010.09;;;12.77;57.43